createdAt,value
2023-04-03T00:00:09.782Z,955.8929443
2023-04-03T00:01:10.419Z,955.8449707
2023-04-03T00:02:10.865Z,955.8588867
2023-04-03T00:03:11.350Z,955.8336182
2023-04-03T00:04:11.879Z,955.8130493
2023-04-03T00:05:12.462Z,955.8357544
2023-04-03T00:06:13.161Z,955.8275146
2023-04-03T00:07:13.556Z,955.7909546
2023-04-03T00:08:14.061Z,955.8242798
2023-04-03T00:09:14.501Z,955.8112793
2023-04-03T00:10:15.042Z,955.8474731
2023-04-03T00:11:15.643Z,955.835022
2023-04-03T00:12:16.233Z,955.8587646
2023-04-03T00:13:16.767Z,955.8612671
2023-04-03T00:14:17.257Z,955.8769531
2023-04-03T00:15:17.753Z,955.8751831
2023-04-03T00:16:18.300Z,955.868103
2023-04-03T00:17:18.872Z,955.8566895
2023-04-03T00:18:19.387Z,955.8297729
2023-04-03T00:19:19.939Z,955.8529663
2023-04-03T00:20:20.413Z,955.8117676
2023-04-03T00:21:20.957Z,955.8112793
2023-04-03T00:22:21.483Z,955.8451538
2023-04-03T00:23:22.035Z,955.824707
2023-04-03T00:24:22.479Z,955.7883301
2023-04-03T00:25:23.005Z,955.8060913
2023-04-03T00:26:23.542Z,955.8364868
2023-04-03T00:27:24.149Z,955.8353271
2023-04-03T00:28:24.656Z,955.8327637
2023-04-03T00:29:25.152Z,955.8181152
2023-04-03T00:30:26.111Z,955.8602905
2023-04-03T00:31:56.812Z,955.8434448
2023-04-03T00:32:57.377Z,955.8563843
2023-04-03T00:33:57.850Z,955.8408813
2023-04-03T00:34:58.322Z,955.8396606
2023-04-03T00:35:58.835Z,955.8357544
2023-04-03T00:36:59.430Z,955.8462524
2023-04-03T00:37:59.671Z,955.8267212
2023-04-03T00:39:00.186Z,955.8195801
2023-04-03T00:40:00.694Z,955.758728
2023-04-03T00:41:01.169Z,955.751709
2023-04-03T00:42:01.798Z,955.7402954
2023-04-03T00:43:02.164Z,955.7106323
2023-04-03T00:44:02.783Z,955.6925049
2023-04-03T00:45:03.366Z,955.6870117
2023-04-03T00:46:03.850Z,955.7285767
2023-04-03T00:47:04.375Z,955.753418
2023-04-03T00:48:04.881Z,955.6628418
2023-04-03T00:49:05.282Z,955.6902466
2023-04-03T00:50:05.821Z,955.6707764
2023-04-03T00:51:06.318Z,955.6401367
2023-04-03T00:52:06.981Z,955.657959
2023-04-03T00:53:07.466Z,955.6951294
2023-04-03T00:54:07.998Z,955.6426392
2023-04-03T00:55:08.485Z,955.6450195
2023-04-03T00:56:09.092Z,955.649353
2023-04-03T00:57:09.722Z,955.6726685
2023-04-03T00:58:10.104Z,955.664917
2023-04-03T00:59:10.616Z,955.6514282
2023-04-03T01:00:11.221Z,955.6843872
2023-04-03T01:01:11.832Z,955.6688843
2023-04-03T01:02:12.314Z,955.6342163
2023-04-03T01:03:12.822Z,955.6138306
2023-04-03T01:04:13.554Z,955.6038818
2023-04-03T01:05:14.055Z,955.5876465
2023-04-03T01:06:14.599Z,955.5865479
2023-04-03T01:07:15.225Z,955.5742188
2023-04-03T01:08:15.666Z,955.5870361
2023-04-03T01:09:16.158Z,955.6242065
2023-04-03T01:10:16.686Z,955.5745239
2023-04-03T01:11:17.123Z,955.6052856
2023-04-03T01:12:17.609Z,955.5739136
2023-04-03T01:13:18.130Z,955.5289307
2023-04-03T01:14:18.644Z,955.5357666
2023-04-03T01:15:19.174Z,955.5604858
2023-04-03T01:16:19.691Z,955.5496216
2023-04-03T01:17:20.231Z,955.5507202
2023-04-03T01:18:20.662Z,955.5326538
2023-04-03T01:19:21.166Z,955.5588989
2023-04-03T01:20:21.698Z,955.5665894
2023-04-03T01:21:22.219Z,955.5426636
2023-04-03T01:22:22.771Z,955.5689697
2023-04-03T01:23:23.112Z,955.6056519
2023-04-03T01:24:23.552Z,955.569397
2023-04-03T01:25:24.044Z,955.5871582
2023-04-03T01:26:24.532Z,955.5773315
2023-04-03T01:27:25.463Z,955.5756836
2023-04-03T01:28:56.194Z,955.5982666
2023-04-03T01:29:56.742Z,955.5259399
2023-04-03T01:30:57.306Z,955.5896606
2023-04-03T01:31:57.931Z,955.593811
2023-04-03T01:32:58.705Z,955.5837402
2023-04-03T01:33:59.029Z,955.5812378
2023-04-03T01:34:59.520Z,955.6271362
2023-04-03T01:36:00.114Z,955.5828857
2023-04-03T01:37:00.542Z,955.585022
2023-04-03T01:38:01.071Z,955.550415
2023-04-03T01:39:01.525Z,955.6040039
2023-04-03T01:40:01.982Z,955.6270142
2023-04-03T01:41:02.891Z,955.604248
2023-04-03T01:42:04.033Z,955.635498
2023-04-03T01:43:04.689Z,955.6343994
2023-04-03T01:44:05.084Z,955.6311035
2023-04-03T01:45:05.519Z,955.5948486
2023-04-03T01:46:06.087Z,955.656189
2023-04-03T01:47:06.502Z,955.5934448
2023-04-03T01:48:07.101Z,955.604248
2023-04-03T01:49:07.603Z,955.6326294
2023-04-03T01:50:08.086Z,955.6245117
2023-04-03T01:51:08.556Z,955.6671753
2023-04-03T01:52:09.048Z,955.6320801
2023-04-03T01:53:09.607Z,955.6564331
2023-04-03T01:54:10.075Z,955.5965576
2023-04-03T01:55:10.548Z,955.6289063
2023-04-03T01:56:11.017Z,955.6099854
2023-04-03T01:57:11.496Z,955.6384277
2023-04-03T01:58:12.007Z,955.6276855
2023-04-03T01:59:12.644Z,955.6085815
2023-04-03T02:00:13.142Z,955.6063843
2023-04-03T02:01:13.774Z,955.6154785
2023-04-03T02:02:14.226Z,955.6487427
2023-04-03T02:03:14.731Z,955.5996704
2023-04-03T02:04:15.275Z,955.576416
2023-04-03T02:05:15.850Z,955.6099854
2023-04-03T02:06:16.357Z,955.6359253
2023-04-03T02:07:16.907Z,955.6096802
2023-04-03T02:08:17.406Z,955.6129761
2023-04-03T02:09:17.827Z,955.555603
2023-04-03T02:10:18.304Z,955.6157837
2023-04-03T02:11:18.849Z,955.5822144
2023-04-03T02:12:19.368Z,955.5804443
2023-04-03T02:13:19.893Z,955.5426636
2023-04-03T02:14:20.331Z,955.5604858
2023-04-03T02:15:20.787Z,955.5804443
2023-04-03T02:16:21.371Z,955.5571289
2023-04-03T02:17:22.057Z,955.5384521
2023-04-03T02:18:22.500Z,955.5770264
2023-04-03T02:19:23.945Z,955.5349731
2023-04-03T02:20:24.840Z,955.5490112
2023-04-03T02:21:55.742Z,955.5828247
2023-04-03T02:22:56.283Z,955.5459595
2023-04-03T02:23:56.863Z,955.6224365
2023-04-03T02:24:57.354Z,955.5986938
2023-04-03T02:25:57.907Z,955.5991211
2023-04-03T02:26:58.419Z,955.6021729
2023-04-03T02:27:58.994Z,955.6034546
2023-04-03T02:28:59.537Z,955.583252
2023-04-03T02:30:00.046Z,955.5896606
2023-04-03T02:31:00.641Z,955.583252
2023-04-03T02:32:01.098Z,955.5718994
2023-04-03T02:33:01.701Z,955.6062622
2023-04-03T02:34:02.215Z,955.5720215
2023-04-03T02:35:02.713Z,955.5610962
2023-04-03T02:36:03.256Z,955.5976563
2023-04-03T02:37:03.733Z,955.5926514
2023-04-03T02:38:04.161Z,955.5946655
2023-04-03T02:39:04.717Z,955.6048584
2023-04-03T02:40:05.122Z,955.5817261
2023-04-03T02:41:05.644Z,955.550293
2023-04-03T02:42:06.132Z,955.5754395
2023-04-03T02:43:06.600Z,955.5991211
2023-04-03T02:44:07.209Z,955.6123657
2023-04-03T02:45:07.634Z,955.5773315
2023-04-03T02:46:08.324Z,955.5949707
2023-04-03T02:47:08.670Z,955.6148682
2023-04-03T02:48:09.222Z,955.5802612
2023-04-03T02:49:09.702Z,955.6228027
2023-04-03T02:50:10.175Z,955.6629028
2023-04-03T02:51:10.703Z,955.6325073
2023-04-03T02:52:11.199Z,955.6019287
2023-04-03T02:53:11.799Z,955.6875
2023-04-03T02:54:12.295Z,955.6559448
2023-04-03T02:55:12.721Z,955.6134644
2023-04-03T02:56:13.272Z,955.6578369
2023-04-03T02:57:13.936Z,955.611084
2023-04-03T02:58:14.566Z,955.6454468
2023-04-03T02:59:15.191Z,955.5737305
2023-04-03T03:00:15.586Z,955.6467285
2023-04-03T03:01:16.149Z,955.6697388
2023-04-03T03:02:16.517Z,955.6199951
2023-04-03T03:03:17.205Z,955.6501465
2023-04-03T03:04:17.746Z,955.5777588
2023-04-03T03:05:18.287Z,955.675293
2023-04-03T03:06:18.778Z,955.6773682
2023-04-03T03:07:19.239Z,955.6875
2023-04-03T03:08:19.686Z,955.6987305
2023-04-03T03:09:21.025Z,955.7164307
2023-04-03T03:10:21.586Z,955.6623535
2023-04-03T03:11:22.157Z,955.7352905
2023-04-03T03:12:22.760Z,955.7182617
2023-04-03T03:13:23.103Z,955.7547607
2023-04-03T03:14:23.563Z,955.7089233
2023-04-03T03:15:54.852Z,955.6824341
2023-04-03T03:16:55.176Z,955.6851807
2023-04-03T03:17:55.693Z,955.7006226
2023-04-03T03:18:57.758Z,955.6963501
2023-04-03T03:19:57.476Z,955.6937256
2023-04-03T03:20:58.136Z,955.6987305
2023-04-03T03:21:58.516Z,955.7154541
2023-04-03T03:22:59.031Z,955.7281494
2023-04-03T03:23:59.571Z,955.7460938
2023-04-03T03:25:00.108Z,955.7597656
2023-04-03T03:26:00.781Z,955.7748413
2023-04-03T03:27:01.302Z,955.7703247
2023-04-03T03:28:01.868Z,955.7567139
2023-04-03T03:29:02.665Z,955.7590332
2023-04-03T03:30:03.137Z,955.8186035
2023-04-03T03:31:03.736Z,955.7879639
2023-04-03T03:32:04.350Z,955.8101807
2023-04-03T03:33:04.861Z,955.814209
2023-04-03T03:34:05.391Z,955.8457642
2023-04-03T03:35:05.907Z,955.8498535
2023-04-03T03:36:06.473Z,955.8301392
2023-04-03T03:37:06.876Z,955.7824707
2023-04-03T03:38:07.404Z,955.8262329
2023-04-03T03:39:07.922Z,955.7606201
2023-04-03T03:40:08.499Z,955.7895508
2023-04-03T03:41:09.076Z,955.8040771
2023-04-03T03:42:10.471Z,955.8079834
2023-04-03T03:43:11.077Z,955.8005981
2023-04-03T03:44:11.628Z,955.7902832
2023-04-03T03:45:12.153Z,955.7927856
2023-04-03T03:46:12.706Z,955.7935791
2023-04-03T03:47:13.084Z,955.822998
2023-04-03T03:48:13.559Z,955.8131104
2023-04-03T03:49:14.106Z,955.8501587
2023-04-03T03:50:14.633Z,955.803772
2023-04-03T03:51:15.117Z,955.8063965
2023-04-03T03:52:15.614Z,955.8929443
2023-04-03T03:53:16.090Z,955.828186
2023-04-03T03:54:16.565Z,955.8770142
2023-04-03T03:55:17.063Z,955.8671875
2023-04-03T03:56:17.586Z,955.8537598
2023-04-03T03:57:18.153Z,955.8551636
2023-04-03T03:58:18.628Z,955.8840332
2023-04-03T03:59:19.149Z,955.8856812
2023-04-03T04:00:19.641Z,955.888916
2023-04-03T04:01:20.161Z,955.9227905
2023-04-03T04:02:20.737Z,955.914856
2023-04-03T04:03:21.283Z,955.9343872
2023-04-03T04:04:21.781Z,955.9134521
2023-04-03T04:05:22.135Z,955.9390869
2023-04-03T04:06:22.680Z,955.9324951
2023-04-03T04:07:23.734Z,955.9383545
2023-04-03T04:08:54.512Z,955.9622803
2023-04-03T04:09:55.997Z,955.9416504
2023-04-03T04:10:56.500Z,956.0050659
2023-04-03T04:11:57.012Z,955.942627
2023-04-03T04:12:58.604Z,955.9940796
2023-04-03T04:13:57.997Z,956.0236206
2023-04-03T04:14:58.490Z,956.0181274
2023-04-03T04:15:59.049Z,955.956543
2023-04-03T04:16:59.581Z,955.967041
2023-04-03T04:18:00.082Z,956.0168457
2023-04-03T04:19:00.607Z,956.0022583
2023-04-03T04:20:02.038Z,956.034668
2023-04-03T04:21:02.772Z,956.0250244
2023-04-03T04:22:03.289Z,955.9862671
2023-04-03T04:23:03.716Z,956.0100098
2023-04-03T04:24:04.304Z,956.0014648
2023-04-03T04:25:04.791Z,955.9701538
2023-04-03T04:26:05.317Z,956.026123
2023-04-03T04:27:05.760Z,956.0720215
2023-04-03T04:28:06.256Z,956.0462646
2023-04-03T04:29:06.752Z,956.0698242
2023-04-03T04:30:07.285Z,956.0252075
2023-04-03T04:31:07.848Z,956.0519409
2023-04-03T04:32:08.414Z,956.0321655
2023-04-03T04:33:08.881Z,956.0134888
2023-04-03T04:34:09.335Z,956.013855
2023-04-03T04:35:09.949Z,956.000061
2023-04-03T04:36:10.608Z,956.0626831
2023-04-03T04:37:11.027Z,956.0829468
2023-04-03T04:38:11.504Z,956.0639038
2023-04-03T04:39:12.062Z,956.0584106
2023-04-03T04:40:12.570Z,956.0559082
2023-04-03T04:41:13.079Z,956.0527344
2023-04-03T04:42:15.109Z,956.0806274
2023-04-03T04:43:14.099Z,956.0354614
2023-04-03T04:44:14.631Z,956.0714722
2023-04-03T04:45:15.058Z,956.0650024
2023-04-03T04:46:15.616Z,956.0412598
2023-04-03T04:47:16.336Z,956.031189
2023-04-03T04:48:16.753Z,956.0532227
2023-04-03T04:49:17.288Z,956.0402832
2023-04-03T04:50:17.787Z,956.039978
2023-04-03T04:51:18.259Z,956.0445557
2023-04-03T04:52:18.709Z,956.0804443
2023-04-03T04:53:19.118Z,956.0717773
2023-04-03T04:54:19.613Z,956.0841675
2023-04-03T04:55:20.099Z,956.0508423
2023-04-03T04:56:20.545Z,956.0664063
2023-04-03T04:57:21.072Z,956.0793457
2023-04-03T04:58:21.428Z,956.0978394
2023-04-03T04:59:22.126Z,956.0222778
2023-04-03T05:00:22.378Z,956.1060791
2023-04-03T05:01:53.475Z,956.1079102
2023-04-03T05:02:54.024Z,956.0932007
2023-04-03T05:03:54.285Z,956.1345215
2023-04-03T05:04:54.855Z,956.1015625
2023-04-03T05:05:55.332Z,956.1411133
2023-04-03T05:06:55.828Z,956.1434326
2023-04-03T05:07:56.371Z,956.1566162
2023-04-03T05:08:56.947Z,956.1589355
2023-04-03T05:09:57.517Z,956.1484375
2023-04-03T05:10:58.036Z,956.1741943
2023-04-03T05:11:58.580Z,956.1826782
2023-04-03T05:12:59.111Z,956.1384277
2023-04-03T05:13:59.596Z,956.1512451
2023-04-03T05:15:00.175Z,956.1660767
2023-04-03T05:16:00.701Z,956.1875
2023-04-03T05:17:01.185Z,956.2104492
2023-04-03T05:18:01.939Z,956.2036743
2023-04-03T05:19:02.773Z,956.2014771
2023-04-03T05:20:03.214Z,956.1906128
2023-04-03T05:21:03.678Z,956.2821655
2023-04-03T05:22:04.142Z,956.3041992
2023-04-03T05:23:04.799Z,956.211853
2023-04-03T05:24:05.226Z,956.2827148
2023-04-03T05:25:05.670Z,956.2606201
2023-04-03T05:26:06.211Z,956.2781982
2023-04-03T05:27:06.697Z,956.2818604
2023-04-03T05:28:07.263Z,956.2938843
2023-04-03T05:29:07.681Z,956.2966309
2023-04-03T05:30:08.119Z,956.335144
2023-04-03T05:31:08.624Z,956.2775269
2023-04-03T05:32:09.079Z,956.3392334
2023-04-03T05:33:09.659Z,956.3220825
2023-04-03T05:34:10.114Z,956.2965698
2023-04-03T05:35:10.622Z,956.3005981
2023-04-03T05:36:11.165Z,956.3535767
2023-04-03T05:37:11.569Z,956.3464355
2023-04-03T05:38:12.069Z,956.3337402
2023-04-03T05:39:12.560Z,956.3505249
2023-04-03T05:40:13.990Z,956.3856812
2023-04-03T05:41:14.489Z,956.3460083
2023-04-03T05:42:15.013Z,956.3526001
2023-04-03T05:43:15.594Z,956.3956299
2023-04-03T05:44:16.046Z,956.3696899
2023-04-03T05:45:16.629Z,956.3764648
2023-04-03T05:46:17.166Z,956.3833008
2023-04-03T05:47:17.575Z,956.4403076
2023-04-03T05:48:18.076Z,956.4081421
2023-04-03T05:49:18.528Z,956.366333
2023-04-03T05:50:19.094Z,956.3778076
2023-04-03T05:51:19.656Z,956.4254761
2023-04-03T05:52:20.160Z,956.4238892
2023-04-03T05:53:20.690Z,956.4269409
2023-04-03T05:54:21.101Z,956.3972168
2023-04-03T05:55:21.569Z,956.3867188
2023-04-03T05:56:52.747Z,956.3545532
2023-04-03T05:57:53.272Z,956.3696899
2023-04-03T05:58:54.017Z,956.3291626
2023-04-03T05:59:54.415Z,956.3331299
2023-04-03T06:00:54.913Z,956.4037476
2023-04-03T06:01:55.549Z,956.3632813
2023-04-03T06:02:56.294Z,956.3634644
2023-04-03T06:03:56.963Z,956.3856201
2023-04-03T06:04:57.476Z,956.3665771
2023-04-03T06:05:57.778Z,956.4254761
2023-04-03T06:06:58.277Z,956.3787231
2023-04-03T06:07:58.818Z,956.3904419
2023-04-03T06:08:59.390Z,956.366333
2023-04-03T06:09:59.927Z,956.4046631
2023-04-03T06:11:00.515Z,956.3648682
2023-04-03T06:12:01.048Z,956.3134155
2023-04-03T06:13:01.649Z,956.3215332
2023-04-03T06:14:02.942Z,956.3470459
2023-04-03T06:15:03.478Z,956.3445435
2023-04-03T06:16:03.944Z,956.335022
2023-04-03T06:17:04.483Z,956.3462524
2023-04-03T06:18:04.944Z,956.3863525
2023-04-03T06:19:05.755Z,956.350647
2023-04-03T06:20:06.073Z,956.4592285
2023-04-03T06:21:06.551Z,956.4032593
2023-04-03T06:22:07.049Z,956.4732666
2023-04-03T06:23:08.601Z,956.4837646
2023-04-03T06:24:08.061Z,956.4821777
2023-04-03T06:25:08.563Z,956.4896851
2023-04-03T06:26:08.958Z,956.5125732
2023-04-03T06:27:09.426Z,956.5048218
2023-04-03T06:28:10.035Z,956.4611816
2023-04-03T06:29:10.569Z,956.4703369
2023-04-03T06:30:11.034Z,956.4943848
2023-04-03T06:31:11.708Z,956.4423218
2023-04-03T06:32:12.046Z,956.4732666
2023-04-03T06:33:12.490Z,956.4770508
2023-04-03T06:34:13.705Z,956.4695435
2023-04-03T06:35:14.400Z,956.4865723
2023-04-03T06:36:14.986Z,956.5200195
2023-04-03T06:37:15.533Z,956.5335693
2023-04-03T06:38:16.063Z,956.5510254
2023-04-03T06:39:16.589Z,956.4788818
2023-04-03T06:40:17.076Z,956.5282593
2023-04-03T06:41:17.594Z,956.508606
2023-04-03T06:42:18.039Z,956.5921631
2023-04-03T06:43:18.537Z,956.5953369
2023-04-03T06:44:19.151Z,956.5662231
2023-04-03T06:45:19.588Z,956.616272
2023-04-03T06:46:20.240Z,956.590332
2023-04-03T06:47:20.642Z,956.5887451
2023-04-03T06:48:21.548Z,956.5801392
2023-04-03T06:49:52.249Z,956.6146851
2023-04-03T06:50:52.652Z,956.5982056
2023-04-03T06:51:53.136Z,956.6462402
2023-04-03T06:52:53.584Z,956.6015015
2023-04-03T06:53:54.094Z,956.6081543
2023-04-03T06:54:54.669Z,956.6205444
2023-04-03T06:55:55.014Z,956.6532593
2023-04-03T06:56:55.566Z,956.7081299
2023-04-03T06:57:56.017Z,956.6392212
2023-04-03T06:58:56.520Z,956.7004395
2023-04-03T06:59:57.018Z,956.6812744
2023-04-03T07:00:57.398Z,956.675293
2023-04-03T07:01:57.872Z,956.7542114
2023-04-03T07:02:58.461Z,956.7147827
2023-04-03T07:03:59.093Z,956.720459
2023-04-03T07:04:59.473Z,956.703125
2023-04-03T07:05:59.772Z,956.7396851
2023-04-03T07:07:00.258Z,956.6958008
2023-04-03T07:08:00.807Z,956.6610718
2023-04-03T07:09:01.423Z,956.7008667
2023-04-03T07:10:01.895Z,956.6673584
2023-04-03T07:11:02.678Z,956.6565552
2023-04-03T07:12:03.171Z,956.6599121
2023-04-03T07:13:03.622Z,956.6586914
2023-04-03T07:14:04.176Z,956.6682739
2023-04-03T07:15:04.710Z,956.7025146
2023-04-03T07:16:05.193Z,956.7203369
2023-04-03T07:17:05.614Z,956.7003174
2023-04-03T07:18:06.122Z,956.7644043
2023-04-03T07:19:06.520Z,956.7606201
2023-04-03T07:20:07.156Z,956.7667847
2023-04-03T07:21:07.562Z,956.7363281
2023-04-03T07:22:08.027Z,956.7349854
2023-04-03T07:23:08.496Z,956.751709
2023-04-03T07:24:11.425Z,956.7908325
2023-04-03T07:25:09.544Z,956.7234497
2023-04-03T07:26:10.000Z,956.7620239
2023-04-03T07:27:10.457Z,956.8533325
2023-04-03T07:28:10.913Z,956.8284302
2023-04-03T07:29:11.420Z,956.8178101
2023-04-03T07:30:11.982Z,956.8401489
2023-04-03T07:31:12.512Z,956.8400269
2023-04-03T07:32:12.927Z,956.8209229
2023-04-03T07:33:13.388Z,956.8356323
2023-04-03T07:34:13.985Z,956.8595581
2023-04-03T07:35:14.480Z,956.8353882
2023-04-03T07:36:15.132Z,956.8256836
2023-04-03T07:37:15.644Z,956.838623
2023-04-03T07:38:16.312Z,956.8070068
2023-04-03T07:39:16.841Z,956.8230591
2023-04-03T07:40:18.989Z,956.8772583
2023-04-03T07:41:17.927Z,956.8327637
2023-04-03T07:42:18.506Z,956.8439331
2023-04-03T07:43:19.022Z,956.8570557
2023-04-03T07:44:19.526Z,956.8289185
2023-04-03T07:45:20.028Z,956.8410034
2023-04-03T07:46:21.005Z,956.8886108
2023-04-03T07:47:51.710Z,956.8690796
2023-04-03T07:48:52.181Z,956.9053955
2023-04-03T07:49:52.645Z,956.9525146
2023-04-03T07:50:53.327Z,956.9110107
2023-04-03T07:51:53.604Z,956.9456787
2023-04-03T07:52:54.180Z,956.9272461
2023-04-03T07:53:54.675Z,956.9840698
2023-04-03T07:54:55.135Z,956.9873657
2023-04-03T07:55:55.770Z,956.9890137
2023-04-03T07:56:56.140Z,956.9689331
2023-04-03T07:57:56.623Z,956.9659424
2023-04-03T07:58:57.125Z,956.9261475
2023-04-03T07:59:57.619Z,957.0244751
2023-04-03T08:00:58.210Z,956.9751587
2023-04-03T08:01:58.559Z,957.0203247
2023-04-03T08:02:59.157Z,956.9937744
2023-04-03T08:03:59.592Z,957.034668
2023-04-03T08:05:00.020Z,957.0203247
2023-04-03T08:06:00.640Z,956.9770508
2023-04-03T08:07:00.972Z,956.9920044
2023-04-03T08:08:01.408Z,956.9880981
2023-04-03T08:09:01.835Z,957.0559082
2023-04-03T08:10:02.575Z,957.038147
2023-04-03T08:11:03.066Z,957.0126343
2023-04-03T08:12:03.569Z,957.0253296
2023-04-03T08:13:04.128Z,957.0413818
2023-04-03T08:14:04.667Z,956.9679565
2023-04-03T08:15:05.214Z,956.9179688
2023-04-03T08:16:05.779Z,956.9634399
2023-04-03T08:17:06.317Z,957.0125122
2023-04-03T08:18:06.813Z,957.0036011
2023-04-03T08:19:09.676Z,956.998291
2023-04-03T08:20:07.921Z,956.9667969
2023-04-03T08:21:08.470Z,956.9993896
2023-04-03T08:22:08.855Z,956.9671021
2023-04-03T08:23:09.307Z,956.944519
2023-04-03T08:24:09.788Z,956.9503174
2023-04-03T08:25:10.186Z,956.9042358
2023-04-03T08:26:10.854Z,956.8951416
2023-04-03T08:27:11.305Z,956.9112549
2023-04-03T08:28:11.899Z,956.9137573
2023-04-03T08:29:12.365Z,956.8771973
2023-04-03T08:30:12.802Z,956.9362793
2023-04-03T08:31:13.474Z,956.9335327
2023-04-03T08:32:13.887Z,956.9552612
2023-04-03T08:33:14.816Z,956.8981323
2023-04-03T08:34:15.305Z,956.8753052
2023-04-03T08:35:15.802Z,956.9068604
2023-04-03T08:36:16.358Z,956.9715576
2023-04-03T08:37:16.749Z,956.9501343
2023-04-03T08:38:17.158Z,956.9434204
2023-04-03T08:39:17.649Z,956.9364014
2023-04-03T08:40:18.144Z,956.9295044
2023-04-03T08:41:18.605Z,956.9798584
2023-04-03T08:42:19.090Z,956.9364014
2023-04-03T08:43:20.118Z,957.0015869
2023-04-03T08:44:50.808Z,956.9880981
2023-04-03T08:45:51.313Z,956.9487305
2023-04-03T08:46:51.663Z,956.9896851
2023-04-03T08:47:53.891Z,956.9962769
2023-04-03T08:48:52.541Z,956.9886475
2023-04-03T08:49:53.007Z,956.9938965
2023-04-03T08:50:53.716Z,956.9918823
2023-04-03T08:51:54.211Z,957.0142212
2023-04-03T08:52:54.673Z,956.9598389
2023-04-03T08:53:55.142Z,956.9924316
2023-04-03T08:54:55.606Z,957.0098267
2023-04-03T08:55:56.054Z,957.015625
2023-04-03T08:56:56.675Z,956.9951782
2023-04-03T08:57:57.025Z,957.0198364
2023-04-03T08:58:57.501Z,957.0170288
2023-04-03T08:59:57.946Z,956.9745483
2023-04-03T09:00:58.386Z,957.0346069
2023-04-03T09:01:58.970Z,957.010498
2023-04-03T09:02:59.313Z,956.9949951
2023-04-03T09:03:59.772Z,957.0444336
2023-04-03T09:05:00.384Z,957.0097046
2023-04-03T09:06:00.812Z,956.9975586
2023-04-03T09:07:01.343Z,956.9838867
2023-04-03T09:08:01.757Z,956.9621582
2023-04-03T09:09:02.205Z,956.9815674
2023-04-03T09:10:02.723Z,956.9770508
2023-04-03T09:11:03.249Z,956.930603
2023-04-03T09:12:03.766Z,956.9312744
2023-04-03T09:13:04.195Z,956.899231
2023-04-03T09:14:04.653Z,956.9732666
2023-04-03T09:15:05.174Z,956.9334106
2023-04-03T09:16:05.650Z,956.932373
2023-04-03T09:17:06.183Z,956.9559937
2023-04-03T09:18:06.666Z,956.9673462
2023-04-03T09:19:07.082Z,957.0367432
2023-04-03T09:20:07.541Z,956.9712524
2023-04-03T09:21:07.970Z,956.9390869
2023-04-03T09:22:08.524Z,956.9621582
2023-04-03T09:23:08.873Z,956.9520264
2023-04-03T09:24:09.297Z,956.9160767
2023-04-03T09:25:09.762Z,956.9550171
2023-04-03T09:26:10.203Z,956.9334106
2023-04-03T09:27:10.720Z,956.9567261
2023-04-03T09:28:11.358Z,956.9550171
2023-04-03T09:29:11.845Z,956.9796753
2023-04-03T09:30:12.330Z,956.9890747
2023-04-03T09:31:12.856Z,956.9220581
2023-04-03T09:32:13.347Z,956.9785767
2023-04-03T09:33:13.821Z,956.9729004
2023-04-03T09:34:14.293Z,957.0424194
2023-04-03T09:35:20.610Z,957.0301514
2023-04-03T09:36:15.240Z,957.0262451
2023-04-03T09:37:15.837Z,957.1210327
2023-04-03T09:38:16.287Z,957.0527954
2023-04-03T09:39:16.762Z,957.1091309
2023-04-03T09:40:17.197Z,957.0979614
2023-04-03T09:41:17.676Z,957.1048584
2023-04-03T09:42:18.193Z,957.1204834
2023-04-03T09:43:18.666Z,957.1604614
2023-04-03T09:44:49.736Z,957.1414185
2023-04-03T09:45:50.162Z,957.196106
2023-04-03T09:46:50.901Z,957.1582642
2023-04-03T09:47:51.365Z,957.1931152
2023-04-03T09:48:55.054Z,957.2020264
2023-04-03T09:49:52.240Z,957.2003174
2023-04-03T09:50:52.694Z,957.3343506
2023-04-03T09:51:53.123Z,957.2058716
2023-04-03T09:52:53.672Z,957.300293
2023-04-03T09:53:53.990Z,957.1939697
2023-04-03T09:54:54.452Z,957.2745972
2023-04-03T09:55:54.945Z,957.2348633
2023-04-03T09:56:55.617Z,957.2633057
2023-04-03T09:57:56.060Z,957.3345947
2023-04-03T09:58:56.529Z,957.2732544
2023-04-03T09:59:56.933Z,957.2109985
2023-04-03T10:00:57.473Z,957.2722778
2023-04-03T10:01:57.981Z,957.223877
2023-04-03T10:02:58.679Z,957.1884155
2023-04-03T10:03:59.215Z,957.1009521
2023-04-03T10:05:09.362Z,957.1224976
2023-04-03T10:06:00.172Z,957.1469727
2023-04-03T10:07:00.641Z,957.1011963
2023-04-03T10:08:03.951Z,957.1031494
2023-04-03T10:09:01.635Z,957.0817261
2023-04-03T10:10:02.268Z,957.0974121
2023-04-03T10:11:02.806Z,957.1345215
2023-04-03T10:12:03.297Z,957.1852417
2023-04-03T10:13:03.789Z,957.072998
2023-04-03T10:14:04.363Z,957.2123413
2023-04-03T10:15:04.864Z,957.1898193
2023-04-03T10:16:05.316Z,957.130249
2023-04-03T10:17:05.767Z,957.1272583
2023-04-03T10:18:17.878Z,957.1121826
2023-04-03T10:19:06.717Z,957.1347656
2023-04-03T10:20:07.523Z,957.1356201
2023-04-03T10:21:11.893Z,957.1367798
2023-04-03T10:22:08.722Z,957.154541
2023-04-03T10:23:09.221Z,957.1829834
2023-04-03T10:24:09.686Z,957.1311035
2023-04-03T10:25:10.121Z,957.2023315
2023-04-03T10:26:12.038Z,957.112793
2023-04-03T10:27:11.115Z,957.1470337
2023-04-03T10:28:11.569Z,957.1376343
2023-04-03T10:29:12.033Z,957.1947021
2023-04-03T10:30:12.503Z,957.1970825
2023-04-03T10:31:12.971Z,957.1606445
2023-04-03T10:32:13.387Z,957.0904541
2023-04-03T10:33:13.880Z,957.1507568
2023-04-03T10:34:14.392Z,957.1578369
2023-04-03T10:35:15.194Z,957.1072388
2023-04-03T10:36:15.945Z,957.1260986
2023-04-03T10:37:16.396Z,957.0577393
2023-04-03T10:38:16.932Z,957.038147
2023-04-03T10:39:17.404Z,957.0356445
2023-04-03T10:40:17.876Z,957.03302
2023-04-03T10:41:49.068Z,957.0466919
2023-04-03T10:42:49.466Z,957.0441895
2023-04-03T10:43:50.063Z,957.0045166
2023-04-03T10:44:50.531Z,957.0162354
2023-04-03T10:45:51.087Z,956.9943848
2023-04-03T10:46:51.505Z,957.0043945
2023-04-03T10:47:52.000Z,956.9472656
2023-04-03T10:48:52.721Z,956.9437256
2023-04-03T10:49:59.285Z,956.9862671
2023-04-03T10:50:53.656Z,957.0139771
2023-04-03T10:51:54.164Z,957.0176392
2023-04-03T10:52:54.616Z,956.9746704
2023-04-03T10:53:55.099Z,956.992981
2023-04-03T10:54:55.548Z,956.9793701
2023-04-03T10:55:56.070Z,957.0265503
2023-04-03T10:57:08.569Z,956.9702148
2023-04-03T10:57:57.075Z,956.9331055
2023-04-03T10:58:57.490Z,956.9494629
2023-04-03T10:59:57.950Z,956.9835815
2023-04-03T11:00:58.445Z,956.883728